Time;durP1;ratioP1;P1;durP2;ratioP2;P2;SDS_P1;SDS_P2;PMS_P1;PMS_P2;Temp;Humidity;BMP_temperature;BMP_pressure;BME280_temperature;BME280_humidity;BME280_pressure;Samples;Min_cycle;Max_cycle;Signal;HPM_P1;HPM_P2
2022/09/01 05:00:36;;;;;;;20.63;18.73;;;17.20;97.20;;;;;;1733838;28;20273;-73
2022/09/01 05:01:27;;;;;;;21.27;19.48;;;17.20;97.20;;;;;;1734241;28;20207;-74
2022/09/01 05:02:19;;;;;;;22.47;20.47;;;17.20;97.20;;;;;;1728173;28;20280;-74
2022/09/01 05:03:10;;;;;;;21.02;19.30;;;17.20;97.20;;;;;;1731576;28;20200;-74
2022/09/01 05:04:02;;;;;;;22.13;19.77;;;17.20;97.20;;;;;;1728477;28;20242;-74
2022/09/01 05:04:57;;;;;;;20.90;19.20;;;17.20;97.20;;;;;;1727520;28;20200;-74
2022/09/01 05:05:49;;;;;;;21.20;19.23;;;17.20;97.20;;;;;;1727728;28;20243;-74
2022/09/01 05:06:42;;;;;;;21.52;19.73;;;17.20;97.20;;;;;;1727859;28;20212;-74
2022/09/01 05:07:36;;;;;;;21.27;19.48;;;17.20;97.20;;;;;;1726837;28;20207;-74
2022/09/01 05:08:27;;;;;;;20.95;19.00;;;17.20;97.20;;;;;;1727765;28;20204;-74
2022/09/01 05:09:20;;;;;;;21.97;19.77;;;17.20;97.20;;;;;;1727916;28;20207;-74
2022/09/01 05:10:11;;;;;;;23.48;21.38;;;17.20;97.20;;;;;;1727923;28;20680;-74
2022/09/01 05:11:06;;;;;;;22.57;20.63;;;17.20;97.20;;;;;;1727842;28;20295;-74
2022/09/01 05:12:09;;;;;;;23.15;20.77;;;17.20;97.20;;;;;;1727924;28;21000;-74
2022/09/01 05:13:08;;;;;;;21.40;19.27;;;17.20;97.20;;;;;;1727888;28;20288;-73
2022/09/01 05:13:59;;;;;;;23.67;21.48;;;17.20;97.20;;;;;;1727782;28;20189;-74
2022/09/01 05:14:51;;;;;;;22.10;20.20;;;17.20;97.20;;;;;;1728035;28;20235;-74
2022/09/01 05:15:45;;;;;;;21.90;19.77;;;17.20;97.20;;;;;;1727736;28;20212;-74
2022/09/01 05:16:39;;;;;;;22.63;20.52;;;17.30;97.20;;;;;;1728280;28;20284;-74
2022/09/01 05:17:30;;;;;;;22.02;20.05;;;17.30;97.20;;;;;;1727263;28;20208;-74
2022/09/01 05:18:23;;;;;;;26.50;21.73;;;17.30;97.20;;;;;;1727809;28;20232;-74
2022/09/01 05:19:14;;;;;;;22.92;20.85;;;17.30;97.20;;;;;;1727279;28;20322;-74
2022/09/01 05:20:08;;;;;;;22.87;20.90;;;17.30;97.20;;;;;;1727344;28;20196;-74
2022/09/01 05:21:09;;;;;;;23.55;21.45;;;17.30;97.20;;;;;;1727190;28;20544;-74
2022/09/01 05:22:02;;;;;;;21.38;19.52;;;17.30;97.20;;;;;;1727850;28;20197;-74
2022/09/01 05:22:56;;;;;;;22.25;20.35;;;17.30;97.20;;;;;;1727844;28;20212;-74
2022/09/01 05:23:50;;;;;;;23.13;21.13;;;17.30;97.20;;;;;;1728011;28;20734;-74
2022/09/01 05:24:42;;;;;;;22.05;19.92;;;17.40;97.20;;;;;;1727255;28;20240;-74
2022/09/01 05:25:37;;;;;;;21.90;20.00;;;17.40;97.20;;;;;;1727035;28;20211;-74
2022/09/01 05:26:33;;;;;;;21.95;19.95;;;17.40;97.20;;;;;;1727447;28;20193;-73
2022/09/01 05:27:25;;;;;;;20.75;19.02;;;17.40;97.20;;;;;;1727235;28;20212;-74
2022/09/01 05:28:18;;;;;;;21.60;19.80;;;17.40;97.20;;;;;;1727859;28;20228;-73
2022/09/01 05:29:12;;;;;;;22.98;20.92;;;17.40;97.20;;;;;;1727702;28;20205;-73
2022/09/01 05:30:07;;;;;;;21.83;19.95;;;17.40;97.20;;;;;;1727859;28;20608;-73
2022/09/01 05:31:00;;;;;;;22.17;20.17;;;17.40;97.20;;;;;;1727701;28;20224;-73
2022/09/01 05:31:54;;;;;;;21.70;19.80;;;17.50;97.20;;;;;;1727950;28;20212;-73
2022/09/01 05:32:47;;;;;;;22.95;20.88;;;17.50;97.20;;;;;;1728842;28;20218;-73
2022/09/01 05:33:44;;;;;;;20.88;19.13;;;17.50;97.20;;;;;;1732060;28;20202;-73
2022/09/01 05:34:37;;;;;;;22.90;20.80;;;17.50;97.20;;;;;;1734572;28;20211;-74
2022/09/01 05:35:30;;;;;;;22.17;20.27;;;17.50;97.20;;;;;;1734758;28;20200;-74
2022/09/01 05:36:22;;;;;;;22.38;20.48;;;17.50;97.20;;;;;;1734545;28;20199;-74
2022/09/01 05:37:15;;;;;;;21.80;19.98;;;17.50;97.20;;;;;;1733748;28;20207;-73
2022/09/01 05:38:09;;;;;;;22.67;20.65;;;17.50;97.20;;;;;;1734656;28;20196;-73
2022/09/01 05:39:03;;;;;;;22.20;20.30;;;17.50;97.20;;;;;;1734442;28;20250;-73
2022/09/01 05:39:55;;;;;;;23.10;21.10;;;17.60;97.20;;;;;;1734579;28;20754;-74
2022/09/01 05:40:56;;;;;;;22.65;20.75;;;17.60;97.20;;;;;;1734512;28;20269;-74
2022/09/01 05:41:48;;;;;;;22.05;20.23;;;17.60;97.20;;;;;;1734633;28;20237;-74
2022/09/01 05:42:39;;;;;;;21.15;19.35;;;17.60;97.20;;;;;;1734522;28;20262;-74
2022/09/01 05:43:31;;;;;;;22.55;20.65;;;17.60;97.20;;;;;;1734691;28;20576;-74
2022/09/01 05:44:23;;;;;;;22.48;20.45;;;17.60;97.20;;;;;;1734455;28;20219;-74
2022/09/01 05:45:19;;;;;;;22.98;21.08;;;17.60;97.20;;;;;;1734547;28;20695;-74
2022/09/01 05:46:15;;;;;;;23.73;21.42;;;17.60;97.20;;;;;;1734635;28;20246;-74
2022/09/01 05:47:08;;;;;;;23.00;21.02;;;17.60;97.20;;;;;;1729622;28;20196;-74
2022/09/01 05:48:00;;;;;;;22.85;20.77;;;17.60;97.20;;;;;;1727652;28;20693;-74
2022/09/01 05:48:52;;;;;;;23.08;20.88;;;17.60;97.20;;;;;;1727624;28;20204;-74
2022/09/01 05:49:44;;;;;;;22.60;20.20;;;17.60;97.20;;;;;;1727766;28;20602;-74
2022/09/01 05:50:39;;;;;;;23.45;21.15;;;17.70;97.20;;;;;;1727627;28;20703;-74
2022/09/01 05:51:34;;;;;;;22.63;20.52;;;17.70;97.20;;;;;;1727728;28;20212;-74
2022/09/01 05:52:25;;;;;;;23.90;20.90;;;17.70;97.20;;;;;;1727081;28;20296;-74
2022/09/01 05:53:17;;;;;;;21.73;19.53;;;17.70;97.20;;;;;;1727606;28;20255;-74
2022/09/01 05:54:09;;;;;;;22.17;20.23;;;17.70;97.20;;;;;;1727776;28;20439;-74
2022/09/01 05:55:01;;;;;;;21.23;19.20;;;17.70;97.20;;;;;;1727699;28;20232;-74
2022/09/01 05:55:55;;;;;;;22.83;20.63;;;17.70;97.20;;;;;;1727581;28;20212;-74
2022/09/01 05:56:47;;;;;;;22.15;20.10;;;17.70;97.20;;;;;;1727436;28;20201;-74
2022/09/01 05:57:39;;;;;;;23.13;20.92;;;17.70;97.20;;;;;;1727093;28;20208;-74
2022/09/01 05:58:31;;;;;;;22.38;20.48;;;17.70;97.20;;;;;;1727533;28;20576;-74
2022/09/01 05:59:22;;;;;;;21.75;19.70;;;17.70;97.20;;;;;;1727598;28;20701;-74
2022/09/01 06:00:16;;;;;;;22.83;20.63;;;17.70;97.20;;;;;;1727356;28;20204;-74
2022/09/01 06:01:09;;;;;;;23.20;20.90;;;17.70;97.20;;;;;;1727761;28;20536;-74
2022/09/01 06:02:04;;;;;;;23.33;21.05;;;17.70;97.20;;;;;;1727647;28;20287;-74
2022/09/01 06:02:57;;;;;;;21.48;19.48;;;17.70;97.20;;;;;;1728364;28;20895;-74
2022/09/01 06:03:53;;;;;;;23.13;21.10;;;17.70;97.20;;;;;;1727669;28;20208;-74
2022/09/01 06:04:44;;;;;;;22.83;20.77;;;17.70;97.20;;;;;;1727632;28;20205;-74
2022/09/01 06:05:36;;;;;;;22.90;20.70;;;17.70;97.20;;;;;;1727687;28;20232;-74
2022/09/01 06:06:29;;;;;;;21.33;19.33;;;17.70;97.20;;;;;;1727637;28;20267;-74
2022/09/01 06:07:22;;;;;;;22.38;20.17;;;17.80;97.20;;;;;;1726770;28;20557;-74
2022/09/01 06:08:13;;;;;;;22.25;20.25;;;17.80;97.20;;;;;;1727435;28;20249;-74
2022/09/01 06:09:06;;;;;;;24.02;21.40;;;17.80;97.20;;;;;;1727554;28;20259;-74
2022/09/01 06:09:58;;;;;;;22.23;20.15;;;17.80;97.20;;;;;;1727548;28;20259;-73
2022/09/01 06:10:51;;;;;;;23.65;21.35;;;17.80;97.20;;;;;;1727502;28;20740;-73
2022/09/01 06:11:42;;;;;;;22.27;20.10;;;17.80;97.20;;;;;;1727705;28;20212;-73
2022/09/01 06:12:33;;;;;;;22.80;20.60;;;17.80;97.20;;;;;;1727482;28;20295;-73
2022/09/01 06:13:24;;;;;;;22.65;20.45;;;17.90;97.20;;;;;;1727624;28;20686;-73
2022/09/01 06:14:17;;;;;;;22.00;19.90;;;17.90;97.20;;;;;;1727527;28;20570;-74
2022/09/01 06:15:14;;;;;;;21.85;19.75;;;17.90;97.20;;;;;;1727629;28;20655;-74
2022/09/01 06:16:07;;;;;;;21.92;19.95;;;17.90;97.20;;;;;;1727626;28;20283;-74
2022/09/01 06:16:59;;;;;;;22.90;20.67;;;17.90;97.20;;;;;;1727252;28;20208;-73
2022/09/01 06:17:53;;;;;;;20.73;18.83;;;17.90;97.20;;;;;;1726832;28;20208;-73
2022/09/01 06:18:44;;;;;;;20.73;18.73;;;17.90;97.20;;;;;;1731037;28;20712;-73
2022/09/01 06:19:36;;;;;;;22.37;20.30;;;17.90;97.20;;;;;;1727215;28;20345;-74
2022/09/01 06:20:28;;;;;;;21.60;19.40;;;17.90;97.20;;;;;;1726909;28;20475;-73
2022/09/01 06:21:23;;;;;;;21.95;19.80;;;17.90;97.20;;;;;;1726876;28;20300;-74
2022/09/01 06:22:14;;;;;;;22.25;20.23;;;17.90;97.20;;;;;;1726918;28;20213;-73
2022/09/01 06:23:06;;;;;;;21.75;19.52;;;18.00;97.20;;;;;;1726900;28;20201;-73
2022/09/01 06:23:58;;;;;;;22.15;19.65;;;18.00;97.20;;;;;;1727049;28;20223;-73
2022/09/01 06:24:50;;;;;;;20.58;18.58;;;18.00;97.20;;;;;;1727258;28;20251;-74
2022/09/01 06:25:43;;;;;;;21.23;19.17;;;18.00;97.20;;;;;;1727383;28;20572;-73
2022/09/01 06:26:37;;;;;;;21.58;19.38;;;18.00;97.20;;;;;;1727354;28;20513;-73
2022/09/01 06:27:28;;;;;;;20.17;18.17;;;18.00;97.20;;;;;;1729550;28;21637;-73
2022/09/01 06:28:22;;;;;;;20.57;18.77;;;18.00;97.20;;;;;;1734176;28;20196;-73
2022/09/01 06:29:14;;;;;;;20.83;18.88;;;18.00;97.20;;;;;;1733900;28;20207;-73
2022/09/01 06:30:13;;;;;;;20.55;18.67;;;18.00;97.20;;;;;;1733602;28;20596;-72
2022/09/01 06:31:08;;;;;;;19.85;17.85;;;18.10;97.20;;;;;;1734335;28;20659;-73
2022/09/01 06:32:01;;;;;;;20.67;18.80;;;18.10;97.20;;;;;;1734212;28;20278;-73
2022/09/01 06:32:53;;;;;;;21.40;19.48;;;18.10;97.20;;;;;;1734092;28;20204;-72
2022/09/01 06:33:46;;;;;;;20.10;18.23;;;18.10;97.20;;;;;;1727594;28;20200;-73
2022/09/01 06:34:39;;;;;;;19.70;17.77;;;18.10;97.20;;;;;;1731360;28;20215;-72
2022/09/01 06:35:31;;;;;;;21.33;19.27;;;18.20;97.20;;;;;;1731958;28;20634;-73
2022/09/01 06:36:24;;;;;;;20.63;18.55;;;18.20;97.20;;;;;;1732611;28;20223;-72
2022/09/01 06:37:21;;;;;;;20.63;18.77;;;18.20;97.20;;;;;;1726815;28;20196;-72
2022/09/01 06:38:13;;;;;;;20.50;18.60;;;18.20;97.20;;;;;;1727356;28;20254;-72
2022/09/01 06:39:05;;;;;;;20.15;18.27;;;18.20;97.20;;;;;;1727198;28;20725;-73
2022/09/01 06:39:56;;;;;;;20.80;18.77;;;18.30;97.20;;;;;;1726779;28;20231;-73
2022/09/01 06:40:48;;;;;;;20.40;18.43;;;18.30;97.20;;;;;;1727431;28;20228;-73
2022/09/01 06:41:39;;;;;;;20.17;18.33;;;18.30;97.20;;;;;;1731264;28;20446;-72
2022/09/01 06:42:33;;;;;;;21.37;19.20;;;18.30;97.20;;;;;;1734293;28;20242;-72
2022/09/01 06:43:24;;;;;;;20.83;18.73;;;18.30;97.20;;;;;;1734210;28;20241;-72
2022/09/01 06:44:21;;;;;;;20.53;18.80;;;18.30;97.20;;;;;;1734294;28;20254;-73
2022/09/01 06:45:12;;;;;;;21.10;19.00;;;18.30;97.20;;;;;;1733163;28;20677;-73
2022/09/01 06:46:03;;;;;;;19.88;17.83;;;18.30;97.20;;;;;;1727545;28;20208;-73
2022/09/01 06:46:54;;;;;;;19.30;17.30;;;18.30;97.20;;;;;;1727234;28;20207;-74
2022/09/01 06:47:49;;;;;;;21.03;18.90;;;18.40;97.20;;;;;;1727001;28;20204;-73
2022/09/01 06:48:45;;;;;;;21.55;19.27;;;18.40;97.20;;;;;;1727375;28;20208;-73
2022/09/01 06:49:38;;;;;;;20.10;17.83;;;18.40;97.20;;;;;;1727485;28;20208;-73
2022/09/01 06:50:29;;;;;;;20.00;17.90;;;18.40;97.20;;;;;;1727346;28;20215;-73
2022/09/01 06:51:23;;;;;;;19.33;17.50;;;18.40;97.20;;;;;;1727362;28;20666;-73
2022/09/01 06:52:14;;;;;;;17.77;16.25;;;18.40;97.20;;;;;;1727419;28;20197;-73
2022/09/01 06:53:09;;;;;;;22.70;18.45;;;18.40;97.20;;;;;;1727552;28;20203;-73
2022/09/01 06:54:00;;;;;;;19.15;17.52;;;18.40;97.20;;;;;;1727413;28;20211;-73
2022/09/01 06:54:53;;;;;;;18.42;16.75;;;18.40;97.20;;;;;;1727454;28;20620;-73
2022/09/01 06:55:47;;;;;;;18.95;17.10;;;18.40;97.20;;;;;;1727438;28;20208;-73
2022/09/01 06:56:39;;;;;;;19.92;17.98;;;18.50;97.20;;;;;;1727151;28;20206;-74
2022/09/01 06:57:30;;;;;;;19.60;17.80;;;18.50;97.20;;;;;;1727930;28;20208;-73
2022/09/01 06:58:24;;;;;;;19.77;17.77;;;18.50;97.20;;;;;;1729456;28;20192;-73
2022/09/01 06:59:14;;;;;;;19.85;17.80;;;18.50;97.20;;;;;;1730621;28;20278;-73
2022/09/01 07:00:16;;;;;;;19.53;17.63;;;18.50;97.20;;;;;;1731644;28;20227;-73
2022/09/01 07:01:13;;;;;;;18.45;16.77;;;18.60;97.20;;;;;;1727471;28;20270;-73
2022/09/01 07:02:05;;;;;;;19.30;17.45;;;18.60;97.20;;;;;;1727491;28;20209;-74
2022/09/01 07:02:57;;;;;;;18.77;16.83;;;18.60;97.20;;;;;;1727346;28;20291;-73
2022/09/01 07:03:52;;;;;;;19.63;17.75;;;18.60;97.20;;;;;;1731168;28;20192;-73
2022/09/01 07:04:43;;;;;;;17.88;16.15;;;18.70;97.20;;;;;;1732373;28;20204;-73
2022/09/01 07:05:38;;;;;;;19.45;17.55;;;18.70;97.20;;;;;;1734177;28;20218;-74
2022/09/01 07:06:30;;;;;;;20.92;18.63;;;18.70;97.20;;;;;;1734340;28;20208;-73
2022/09/01 07:07:21;;;;;;;20.50;17.85;;;18.70;97.20;;;;;;1732740;28;20298;-74
2022/09/01 07:08:18;;;;;;;19.03;17.00;;;18.70;97.20;;;;;;1734214;28;20199;-74
2022/09/01 07:09:10;;;;;;;21.85;17.00;;;18.80;97.20;;;;;;1734158;28;20207;-74
2022/09/01 07:10:03;;;;;;;18.85;16.48;;;18.80;97.20;;;;;;1734316;28;20196;-74
2022/09/01 07:10:58;;;;;;;18.20;16.30;;;18.80;97.20;;;;;;1729361;28;20227;-74
2022/09/01 07:11:50;;;;;;;18.27;16.50;;;18.80;97.20;;;;;;1729225;28;20191;-74
2022/09/01 07:12:44;;;;;;;20.25;16.80;;;18.80;97.20;;;;;;1727245;28;20234;-74
2022/09/01 07:13:37;;;;;;;19.20;17.30;;;18.80;97.20;;;;;;1727434;28;20266;-74
2022/09/01 07:14:27;;;;;;;18.73;17.13;;;18.80;97.20;;;;;;1724005;28;20311;-74
2022/09/01 07:15:20;;;;;;;18.13;16.57;;;18.80;97.20;;;;;;1729910;28;20207;-74
2022/09/01 07:16:20;;;;;;;18.35;16.52;;;18.80;97.20;;;;;;1726997;28;20253;-74
2022/09/01 07:17:12;;;;;;;18.17;16.58;;;18.80;97.20;;;;;;1728593;28;20262;-74
2022/09/01 07:18:04;;;;;;;19.25;17.42;;;18.80;97.20;;;;;;1728478;28;20689;-74
2022/09/01 07:19:00;;;;;;;16.08;14.77;;;18.80;97.20;;;;;;1725848;28;20204;-74
2022/09/01 07:19:52;;;;;;;20.50;18.70;;;18.80;97.20;;;;;;1726789;28;20225;-74
2022/09/01 07:20:46;;;;;;;18.02;16.15;;;18.80;97.20;;;;;;1727065;28;20801;-74
2022/09/01 07:21:37;;;;;;;19.05;17.27;;;18.80;97.20;;;;;;1728025;28;20205;-74
2022/09/01 07:22:28;;;;;;;19.23;17.53;;;18.80;97.20;;;;;;1727171;28;20199;-74
2022/09/01 07:23:20;;;;;;;18.67;17.08;;;18.80;97.20;;;;;;1728286;28;20206;-74
2022/09/01 07:24:14;;;;;;;19.55;17.75;;;18.80;97.20;;;;;;1727069;28;20204;-74
2022/09/01 07:25:11;;;;;;;19.23;17.40;;;18.90;97.20;;;;;;1730124;28;20202;-74
2022/09/01 07:26:06;;;;;;;18.33;16.52;;;18.90;97.20;;;;;;1729471;28;20192;-74
2022/09/01 07:26:58;;;;;;;18.27;16.58;;;18.90;97.20;;;;;;1728249;28;20660;-74
2022/09/01 07:27:50;;;;;;;20.23;17.00;;;18.90;97.20;;;;;;1726011;28;20204;-74
2022/09/01 07:28:41;;;;;;;17.98;16.48;;;18.90;97.20;;;;;;1729222;28;20239;-74
2022/09/01 07:29:33;;;;;;;17.73;16.10;;;18.90;97.20;;;;;;1726721;28;20200;-74
2022/09/01 07:30:25;;;;;;;18.63;16.80;;;18.90;97.20;;;;;;1726793;28;20192;-74
2022/09/01 07:31:19;;;;;;;18.42;16.83;;;18.90;97.20;;;;;;1727261;28;20208;-74
2022/09/01 07:32:12;;;;;;;17.45;15.75;;;19.00;97.20;;;;;;1729381;28;20283;-74
2022/09/01 07:33:05;;;;;;;17.90;16.30;;;19.00;97.20;;;;;;1729549;28;20208;-74
2022/09/01 07:34:03;;;;;;;17.30;15.60;;;19.00;97.20;;;;;;1726611;28;20201;-74
2022/09/01 07:34:53;;;;;;;17.55;15.85;;;19.00;97.20;;;;;;1729508;28;20224;-74
2022/09/01 07:35:46;;;;;;;17.97;16.20;;;19.00;97.20;;;;;;1728448;28;20192;-74
2022/09/01 07:36:37;;;;;;;17.52;15.93;;;19.00;97.20;;;;;;1728511;28;20203;-74
2022/09/01 07:37:30;;;;;;;17.25;15.75;;;19.00;97.20;;;;;;1726253;28;20204;-74
2022/09/01 07:38:22;;;;;;;18.33;15.57;;;19.10;97.20;;;;;;1727905;28;20192;-74
2022/09/01 07:39:15;;;;;;;17.88;16.15;;;19.10;97.20;;;;;;1726460;28;20197;-74
2022/09/01 07:40:08;;;;;;;18.50;16.70;;;19.10;97.20;;;;;;1728450;28;20695;-74
2022/09/01 07:41:00;;;;;;;17.23;15.65;;;19.10;97.20;;;;;;1728464;28;20219;-74
2022/09/01 07:41:52;;;;;;;17.73;16.10;;;19.10;97.20;;;;;;1727165;28;20299;-74
2022/09/01 07:42:43;;;;;;;15.18;13.77;;;19.10;97.20;;;;;;1724379;28;20250;-73
2022/09/01 07:43:36;;;;;;;15.55;13.88;;;19.10;97.20;;;;;;1727672;28;20621;-73
2022/09/01 07:44:28;;;;;;;16.27;13.90;;;19.10;97.20;;;;;;1728203;28;20201;-73
2022/09/01 07:45:19;;;;;;;15.55;14.02;;;19.10;97.20;;;;;;1728814;28;20200;-73
2022/09/01 07:46:11;;;;;;;17.40;14.90;;;19.10;97.20;;;;;;1728949;28;20207;-73
2022/09/01 07:47:03;;;;;;;16.10;14.57;;;19.10;97.20;;;;;;1726980;28;20455;-73
2022/09/01 07:47:55;;;;;;;15.15;13.65;;;19.20;97.20;;;;;;1725507;28;20203;-73
2022/09/01 07:48:47;;;;;;;15.32;13.93;;;19.10;97.20;;;;;;1729062;28;20196;-74
2022/09/01 07:49:40;;;;;;;15.70;13.13;;;19.20;97.20;;;;;;1726568;28;20196;-74
2022/09/01 07:50:31;;;;;;;14.80;13.35;;;19.20;97.20;;;;;;1729655;28;20247;-73
2022/09/01 07:51:25;;;;;;;14.10;12.90;;;19.20;97.20;;;;;;1729084;28;20658;-73
2022/09/01 07:52:16;;;;;;;14.48;13.18;;;19.20;97.20;;;;;;1729905;28;20583;-73
2022/09/01 07:53:09;;;;;;;15.65;14.05;;;19.20;97.20;;;;;;1729941;28;20192;-73
2022/09/01 07:54:01;;;;;;;14.43;13.23;;;19.20;97.20;;;;;;1723768;28;20294;-75
2022/09/01 07:54:53;;;;;;;15.65;14.35;;;19.20;97.20;;;;;;1728333;28;20744;-74
2022/09/01 07:55:45;;;;;;;14.52;13.32;;;19.20;97.20;;;;;;1727754;28;20233;-74
2022/09/01 07:56:39;;;;;;;16.15;13.85;;;19.20;97.20;;;;;;1728555;28;20239;-74
2022/09/01 07:57:30;;;;;;;16.35;14.90;;;19.20;97.20;;;;;;1728275;28;20207;-75
2022/09/01 07:58:24;;;;;;;16.00;14.57;;;19.20;97.20;;;;;;1729091;28;20205;-74
2022/09/01 07:59:17;;;;;;;15.63;14.32;;;19.20;97.20;;;;;;1728651;28;20212;-74
2022/09/01 08:00:11;;;;;;;15.98;14.68;;;19.20;97.20;;;;;;1728504;28;20271;-74
2022/09/01 08:01:06;;;;;;;16.85;15.45;;;19.20;97.20;;;;;;1727665;28;20204;-74
2022/09/01 08:01:58;;;;;;;15.68;14.27;;;19.30;97.20;;;;;;1727097;28;20912;-74
2022/09/01 08:02:50;;;;;;;15.63;14.43;;;19.30;97.20;;;;;;1729481;28;20202;-74
2022/09/01 08:03:42;;;;;;;15.38;13.98;;;19.30;97.20;;;;;;1728406;28;20203;-74
2022/09/01 08:04:33;;;;;;;15.27;13.98;;;19.30;97.20;;;;;;1727189;28;20201;-74
2022/09/01 08:05:27;;;;;;;17.58;13.93;;;19.30;97.20;;;;;;1729956;28;20212;-74
2022/09/01 08:06:21;;;;;;;14.68;13.52;;;19.30;97.20;;;;;;1728758;28;20200;-74
2022/09/01 08:07:13;;;;;;;15.07;13.70;;;19.30;97.20;;;;;;1727787;28;20188;-74
2022/09/01 08:08:04;;;;;;;15.82;14.32;;;19.40;97.20;;;;;;1729636;28;20224;-74
2022/09/01 08:08:58;;;;;;;14.93;13.53;;;19.40;97.20;;;;;;1726958;28;20208;-74
2022/09/01 08:09:49;;;;;;;15.90;14.40;;;19.40;97.20;;;;;;1729776;28;20443;-74
2022/09/01 08:10:41;;;;;;;14.60;13.17;;;19.40;97.20;;;;;;1729807;28;20219;-74
2022/09/01 08:11:33;;;;;;;15.23;13.65;;;19.40;97.20;;;;;;1726520;28;20451;-74
2022/09/01 08:12:24;;;;;;;14.77;13.25;;;19.40;97.20;;;;;;1730306;28;20192;-74
2022/09/01 08:13:16;;;;;;;16.83;15.18;;;19.40;97.20;;;;;;1729128;28;20667;-74
2022/09/01 08:14:08;;;;;;;14.93;13.38;;;19.40;97.20;;;;;;1729928;28;20200;-74
2022/09/01 08:15:00;;;;;;;15.55;14.05;;;19.50;97.20;;;;;;1727658;28;20582;-74
2022/09/01 08:15:52;;;;;;;16.00;14.18;;;19.50;97.20;;;;;;1731162;28;20204;-74
2022/09/01 08:16:42;;;;;;;15.38;13.88;;;19.50;97.20;;;;;;1731077;28;20334;-75
2022/09/01 08:17:36;;;;;;;23.83;14.97;;;19.50;97.20;;;;;;1728837;28;20204;-74
2022/09/01 08:18:27;;;;;;;16.30;14.80;;;19.50;97.20;;;;;;1728578;28;20212;-74
2022/09/01 08:19:19;;;;;;;15.10;13.60;;;19.60;97.20;;;;;;1728594;28;20231;-74
2022/09/01 08:20:11;;;;;;;16.40;14.70;;;19.60;97.20;;;;;;1730074;28;20543;-74
2022/09/01 08:21:07;;;;;;;15.98;14.43;;;19.60;97.20;;;;;;1730545;28;20713;-74
2022/09/01 08:21:58;;;;;;;15.35;13.85;;;19.60;97.20;;;;;;1729427;28;20200;-74
2022/09/01 08:22:50;;;;;;;15.17;13.57;;;19.60;97.20;;;;;;1731317;28;20278;-74
2022/09/01 08:23:41;;;;;;;16.48;14.18;;;19.60;97.20;;;;;;1727985;28;20207;-74
2022/09/01 08:24:33;;;;;;;13.40;12.20;;;19.70;97.20;;;;;;1730518;28;20195;-74
2022/09/01 08:25:24;;;;;;;15.27;13.77;;;19.70;97.20;;;;;;1727768;28;20200;-74
2022/09/01 08:26:18;;;;;;;15.02;13.50;;;19.70;97.20;;;;;;1730228;28;20202;-74
2022/09/01 08:27:09;;;;;;;14.07;12.80;;;19.70;97.20;;;;;;1727943;28;20208;-74
2022/09/01 08:28:02;;;;;;;15.07;13.60;;;19.80;97.20;;;;;;1730554;28;20283;-74
2022/09/01 08:28:53;;;;;;;14.50;13.02;;;19.80;97.20;;;;;;1731101;28;20199;-74
2022/09/01 08:29:45;;;;;;;12.95;11.73;;;19.80;97.20;;;;;;1732418;28;20589;-74
2022/09/01 08:30:39;;;;;;;14.32;12.93;;;19.80;97.20;;;;;;1730676;28;20217;-74
2022/09/01 08:31:31;;;;;;;13.52;12.32;;;19.80;97.20;;;;;;1727817;28;20211;-74
2022/09/01 08:32:22;;;;;;;14.55;13.15;;;19.90;97.20;;;;;;1729165;28;20196;-74
2022/09/01 08:33:14;;;;;;;14.27;13.03;;;19.90;97.20;;;;;;1730676;28;20220;-74
2022/09/01 08:34:04;;;;;;;15.13;13.63;;;19.90;97.20;;;;;;1731456;28;20208;-74
2022/09/01 08:34:57;;;;;;;13.00;11.90;;;19.90;97.20;;;;;;1729336;28;20279;-74
2022/09/01 08:35:48;;;;;;;13.18;11.90;;;19.90;97.20;;;;;;1730702;28;20529;-74
2022/09/01 08:36:41;;;;;;;13.02;11.93;;;20.00;97.20;;;;;;1730772;28;20685;-74
2022/09/01 08:37:32;;;;;;;14.50;13.18;;;20.00;97.20;;;;;;1730565;28;20200;-74
2022/09/01 08:38:24;;;;;;;11.80;10.67;;;20.00;97.20;;;;;;1731006;28;20283;-74
2022/09/01 08:39:15;;;;;;;13.40;12.30;;;20.00;97.20;;;;;;1727585;28;20563;-74
2022/09/01 08:40:08;;;;;;;12.53;11.53;;;20.00;97.20;;;;;;1729908;28;20203;-74
2022/09/01 08:40:59;;;;;;;13.82;12.57;;;20.00;97.20;;;;;;1728118;28;20228;-74
2022/09/01 08:42:02;;;;;;;13.02;11.88;;;20.00;97.20;;;;;;1727579;28;20196;-74
2022/09/01 08:43:01;;;;;;;12.80;11.70;;;20.00;97.20;;;;;;1731319;28;20208;-74
2022/09/01 08:44:02;;;;;;;12.88;11.77;;;20.00;97.20;;;;;;1729383;28;20255;-74
2022/09/01 08:45:05;;;;;;;11.75;10.75;;;20.10;97.20;;;;;;1730352;28;20646;-74
2022/09/01 08:46:01;;;;;;;13.75;12.55;;;20.10;97.20;;;;;;1731000;28;20663;-74
2022/09/01 08:46:57;;;;;;;13.00;11.68;;;20.10;97.20;;;;;;1727702;28;20200;-74
2022/09/01 08:47:51;;;;;;;12.35;11.30;;;20.10;97.20;;;;;;1729416;28;20559;-74
2022/09/01 08:48:45;;;;;;;13.52;12.20;;;20.10;97.20;;;;;;1730077;28;20205;-74
2022/09/01 08:49:39;;;;;;;12.23;11.13;;;20.10;97.20;;;;;;1729475;28;20192;-74
2022/09/01 08:50:32;;;;;;;11.95;10.95;;;20.20;97.20;;;;;;1728260;28;20204;-74
2022/09/01 08:51:32;;;;;;;12.65;11.55;;;20.20;97.20;;;;;;1732063;28;20272;-74
2022/09/01 08:52:32;;;;;;;13.02;11.93;;;20.20;97.20;;;;;;1730989;28;20569;-74
2022/09/01 08:53:30;;;;;;;14.57;13.18;;;20.20;97.20;;;;;;1728983;28;20215;-74
2022/09/01 08:54:26;;;;;;;12.52;11.50;;;20.20;97.20;;;;;;1730550;28;20196;-74
2022/09/01 08:55:24;;;;;;;13.52;12.32;;;20.20;97.20;;;;;;1728709;28;20215;-74
2022/09/01 08:56:18;;;;;;;12.18;11.07;;;20.20;97.20;;;;;;1729666;28;20200;-74
2022/09/01 08:57:15;;;;;;;12.13;11.13;;;20.20;97.20;;;;;;1729959;28;20211;-74
2022/09/01 08:58:10;;;;;;;10.95;9.95;;;20.20;97.20;;;;;;1727803;28;20200;-74
2022/09/01 08:59:02;;;;;;;10.88;9.88;;;20.30;97.20;;;;;;1730820;28;20205;-74
2022/09/01 08:59:54;;;;;;;11.90;10.93;;;20.30;97.20;;;;;;1729167;28;20195;-74
2022/09/01 09:00:53;;;;;;;12.70;11.60;;;20.30;97.20;;;;;;1731065;28;20232;-74
2022/09/01 09:01:55;;;;;;;12.43;11.20;;;20.40;97.20;;;;;;1729419;28;20228;-74
2022/09/01 09:03:04;;;;;;;12.57;11.43;;;20.50;97.20;;;;;;1730241;28;20286;-74
2022/09/01 09:04:20;;;;;;;11.63;10.65;;;20.50;97.20;;;;;;1729344;28;20631;-74
2022/09/01 09:05:30;;;;;;;13.15;11.75;;;20.60;97.20;;;;;;1727776;28;20853;-74
2022/09/01 09:06:33;;;;;;;12.85;11.70;;;20.70;97.20;;;;;;1729379;28;20204;-74
2022/09/01 09:07:50;;;;;;;13.02;10.65;;;20.70;97.20;;;;;;1728086;28;20193;-74
2022/09/01 09:08:56;;;;;;;12.40;11.38;;;20.80;97.20;;;;;;1729905;28;20219;-74
2022/09/01 09:09:53;;;;;;;11.85;10.80;;;20.80;97.20;;;;;;1727781;28;20205;-75
2022/09/01 09:10:54;;;;;;;11.27;10.35;;;20.80;97.20;;;;;;1728097;28;20217;-74
2022/09/01 09:12:05;;;;;;;11.15;9.68;;;20.80;97.20;;;;;;1728131;28;20243;-74
2022/09/01 09:13:07;;;;;;;10.75;9.85;;;20.90;97.20;;;;;;1727966;28;20212;-74
2022/09/01 09:14:06;;;;;;;10.63;9.73;;;20.90;97.20;;;;;;1728545;28;20200;-74
2022/09/01 09:15:17;;;;;;;11.10;10.20;;;20.90;97.20;;;;;;1728761;28;20211;-74
2022/09/01 09:16:12;;;;;;;10.85;9.73;;;20.90;97.20;;;;;;1728983;28;20205;-74
2022/09/01 09:17:04;;;;;;;10.90;9.95;;;20.90;97.20;;;;;;1727193;28;20197;-75
2022/09/01 09:18:04;;;;;;;9.70;8.90;;;21.00;97.20;;;;;;1729866;28;20208;-74
2022/09/01 09:19:00;;;;;;;10.23;9.23;;;21.00;97.20;;;;;;1727096;28;20207;-74
2022/09/01 09:19:52;;;;;;;12.70;9.80;;;21.00;97.20;;;;;;1727671;28;20207;-74
2022/09/01 09:20:45;;;;;;;10.35;9.45;;;21.10;97.20;;;;;;1726776;28;20258;-74
2022/09/01 09:21:37;;;;;;;10.55;9.55;;;21.10;97.20;;;;;;1729213;28;20195;-74
2022/09/01 09:22:31;;;;;;;10.40;9.50;;;21.20;97.20;;;;;;1728398;28;20192;-74
2022/09/01 09:23:28;;;;;;;10.57;9.63;;;21.20;97.20;;;;;;1730819;28;20283;-74
2022/09/01 09:24:26;;;;;;;10.60;9.68;;;21.30;97.20;;;;;;1729476;28;20725;-74
2022/09/01 09:25:17;;;;;;;10.80;9.60;;;21.40;97.20;;;;;;1729436;28;20192;-75
2022/09/01 09:26:09;;;;;;;11.70;10.60;;;21.40;97.20;;;;;;1730018;28;20200;-75
2022/09/01 09:27:01;;;;;;;10.98;10.07;;;21.40;97.20;;;;;;1727753;28;20204;-74
2022/09/01 09:27:52;;;;;;;11.93;10.93;;;21.40;97.20;;;;;;1726179;28;20196;-74
2022/09/01 09:28:46;;;;;;;10.90;10.00;;;21.50;97.20;;;;;;1727950;28;20204;-74
2022/09/01 09:29:38;;;;;;;11.05;10.25;;;21.50;97.20;;;;;;1730362;28;20245;-74
2022/09/01 09:30:31;;;;;;;9.95;7.68;;;21.50;97.20;;;;;;1729488;28;20196;-74
2022/09/01 09:31:31;;;;;;;8.48;7.65;;;21.40;97.20;;;;;;1730701;28;20188;-74
2022/09/01 09:32:40;;;;;;;8.40;7.78;;;21.40;97.20;;;;;;1728455;28;20204;-74
2022/09/01 09:33:38;;;;;;;7.80;7.20;;;21.40;97.20;;;;;;1730617;28;20203;-75